sensor_id;sensor_type;location;lat;lon;timestamp;temperature;humidity
15698;DHT22;7949;48.726;9.102;2023-01-30T00:00:51;-3.10;99.90
15698;DHT22;7949;48.726;9.102;2023-01-30T00:03:18;-3.20;99.90
15698;DHT22;7949;48.726;9.102;2023-01-30T00:05:47;-3.10;99.90
15698;DHT22;7949;48.726;9.102;2023-01-30T00:08:15;-3.10;99.90
15698;DHT22;7949;48.726;9.102;2023-01-30T00:10:42;-3.10;99.90
15698;DHT22;7949;48.726;9.102;2023-01-30T00:13:09;-3.10;99.90
15698;DHT22;7949;48.726;9.102;2023-01-30T00:15:37;-3.10;99.90
15698;DHT22;7949;48.726;9.102;2023-01-30T00:18:04;-3.00;99.90
15698;DHT22;7949;48.726;9.102;2023-01-30T00:20:31;-3.10;99.90
15698;DHT22;7949;48.726;9.102;2023-01-30T00:22:59;-3.10;99.90
15698;DHT22;7949;48.726;9.102;2023-01-30T00:25:27;-3.10;99.90
15698;DHT22;7949;48.726;9.102;2023-01-30T00:27:54;-3.10;99.90
15698;DHT22;7949;48.726;9.102;2023-01-30T00:30:21;-3.10;99.90
15698;DHT22;7949;48.726;9.102;2023-01-30T00:32:52;-3.10;99.90
15698;DHT22;7949;48.726;9.102;2023-01-30T00:35:19;-3.00;99.90
15698;DHT22;7949;48.726;9.102;2023-01-30T00:37:46;-3.10;99.90
15698;DHT22;7949;48.726;9.102;2023-01-30T00:40:14;-3.00;99.90
15698;DHT22;7949;48.726;9.102;2023-01-30T00:42:40;-3.00;99.90
15698;DHT22;7949;48.726;9.102;2023-01-30T00:45:25;-3.00;99.90
15698;DHT22;7949;48.726;9.102;2023-01-30T00:48:09;-3.00;99.90
15698;DHT22;7949;48.726;9.102;2023-01-30T00:50:36;-3.00;99.90
15698;DHT22;7949;48.726;9.102;2023-01-30T00:53:09;-2.90;99.90
15698;DHT22;7949;48.726;9.102;2023-01-30T00:55:37;-2.90;99.90
15698;DHT22;7949;48.726;9.102;2023-01-30T00:58:05;-2.90;99.90
15698;DHT22;7949;48.726;9.102;2023-01-30T01:00:32;-2.90;99.90
15698;DHT22;7949;48.726;9.102;2023-01-30T01:02:59;-2.80;99.90
15698;DHT22;7949;48.726;9.102;2023-01-30T01:05:26;-2.70;99.90
15698;DHT22;7949;48.726;9.102;2023-01-30T01:07:53;-2.70;99.90
15698;DHT22;7949;48.726;9.102;2023-01-30T01:10:21;-2.60;99.90
15698;DHT22;7949;48.726;9.102;2023-01-30T01:12:50;-2.60;99.90
15698;DHT22;7949;48.726;9.102;2023-01-30T01:15:18;-2.60;99.90
15698;DHT22;7949;48.726;9.102;2023-01-30T01:17:45;-2.60;99.90
15698;DHT22;7949;48.726;9.102;2023-01-30T01:20:12;-2.70;99.90
15698;DHT22;7949;48.726;9.102;2023-01-30T01:22:39;-2.80;99.90
15698;DHT22;7949;48.726;9.102;2023-01-30T01:25:07;-2.80;99.90
15698;DHT22;7949;48.726;9.102;2023-01-30T01:27:34;-3.00;99.90
15698;DHT22;7949;48.726;9.102;2023-01-30T01:30:03;-3.10;99.90
15698;DHT22;7949;48.726;9.102;2023-01-30T01:32:30;-3.10;99.90
15698;DHT22;7949;48.726;9.102;2023-01-30T01:34:57;-3.20;99.90
15698;DHT22;7949;48.726;9.102;2023-01-30T01:37:24;-3.20;99.90
15698;DHT22;7949;48.726;9.102;2023-01-30T01:39:51;-3.20;99.90
15698;DHT22;7949;48.726;9.102;2023-01-30T01:42:37;-3.10;99.90
15698;DHT22;7949;48.726;9.102;2023-01-30T01:45:14;-2.20;99.90
15698;DHT22;7949;48.726;9.102;2023-01-30T01:47:46;-3.20;99.90
15698;DHT22;7949;48.726;9.102;2023-01-30T01:50:18;-3.30;99.90
15698;DHT22;7949;48.726;9.102;2023-01-30T01:52:46;-3.30;99.90
15698;DHT22;7949;48.726;9.102;2023-01-30T01:55:14;-3.40;99.90
15698;DHT22;7949;48.726;9.102;2023-01-30T01:57:43;-3.40;99.90
15698;DHT22;7949;48.726;9.102;2023-01-30T02:00:15;-3.40;99.90
15698;DHT22;7949;48.726;9.102;2023-01-30T02:02:46;-3.30;99.90
15698;DHT22;7949;48.726;9.102;2023-01-30T02:05:16;-3.30;99.90
15698;DHT22;7949;48.726;9.102;2023-01-30T02:07:46;-3.30;99.90
15698;DHT22;7949;48.726;9.102;2023-01-30T02:10:16;-3.30;99.90
15698;DHT22;7949;48.726;9.102;2023-01-30T02:12:44;-3.20;99.90
15698;DHT22;7949;48.726;9.102;2023-01-30T02:15:13;-3.30;99.90
15698;DHT22;7949;48.726;9.102;2023-01-30T02:17:40;-3.30;99.90
15698;DHT22;7949;48.726;9.102;2023-01-30T02:20:15;-3.30;99.90
15698;DHT22;7949;48.726;9.102;2023-01-30T02:23:07;-3.30;99.90
15698;DHT22;7949;48.726;9.102;2023-01-30T02:26:03;-3.40;99.90
15698;DHT22;7949;48.726;9.102;2023-01-30T02:29:00;-3.50;99.90
15698;DHT22;7949;48.726;9.102;2023-01-30T02:31:44;-3.70;99.90
15698;DHT22;7949;48.726;9.102;2023-01-30T02:34:25;-3.60;99.90
15698;DHT22;7949;48.726;9.102;2023-01-30T02:37:08;-3.60;99.90
15698;DHT22;7949;48.726;9.102;2023-01-30T02:39:49;-3.60;99.90
15698;DHT22;7949;48.726;9.102;2023-01-30T02:42:22;-3.50;99.90
15698;DHT22;7949;48.726;9.102;2023-01-30T02:44:57;-3.40;99.90
15698;DHT22;7949;48.726;9.102;2023-01-30T02:47:32;-3.30;99.90
15698;DHT22;7949;48.726;9.102;2023-01-30T02:50:06;-3.30;99.90
15698;DHT22;7949;48.726;9.102;2023-01-30T02:52:36;-3.20;99.90
15698;DHT22;7949;48.726;9.102;2023-01-30T02:55:07;-3.20;99.90
15698;DHT22;7949;48.726;9.102;2023-01-30T02:57:35;-3.20;99.90
15698;DHT22;7949;48.726;9.102;2023-01-30T03:00:04;-3.20;99.90
15698;DHT22;7949;48.726;9.102;2023-01-30T03:02:46;-3.20;99.90
15698;DHT22;7949;48.726;9.102;2023-01-30T03:05:29;-3.20;99.90
15698;DHT22;7949;48.726;9.102;2023-01-30T03:08:09;-3.30;99.90
15698;DHT22;7949;48.726;9.102;2023-01-30T03:10:45;-3.40;99.90
15698;DHT22;7949;48.726;9.102;2023-01-30T03:13:19;-3.40;99.90
15698;DHT22;7949;48.726;9.102;2023-01-30T03:15:50;-3.30;99.90
15698;DHT22;7949;48.726;9.102;2023-01-30T03:18:21;-3.30;99.90
15698;DHT22;7949;48.726;9.102;2023-01-30T03:20:48;-3.30;99.90
15698;DHT22;7949;48.726;9.102;2023-01-30T03:23:16;-3.40;99.90
15698;DHT22;7949;48.726;9.102;2023-01-30T03:25:45;-3.40;99.90
15698;DHT22;7949;48.726;9.102;2023-01-30T03:28:15;-3.30;99.90
15698;DHT22;7949;48.726;9.102;2023-01-30T03:30:42;-3.20;99.90
15698;DHT22;7949;48.726;9.102;2023-01-30T03:33:09;-3.20;99.90
15698;DHT22;7949;48.726;9.102;2023-01-30T03:35:37;-3.10;99.90
15698;DHT22;7949;48.726;9.102;2023-01-30T03:38:05;-3.10;99.90
15698;DHT22;7949;48.726;9.102;2023-01-30T03:40:32;-3.00;99.90
15698;DHT22;7949;48.726;9.102;2023-01-30T03:42:59;-2.90;99.90
15698;DHT22;7949;48.726;9.102;2023-01-30T03:45:25;-2.80;99.90
15698;DHT22;7949;48.726;9.102;2023-01-30T03:47:52;-2.80;99.90
15698;DHT22;7949;48.726;9.102;2023-01-30T03:50:19;-2.80;99.90
15698;DHT22;7949;48.726;9.102;2023-01-30T03:52:47;-2.70;99.90
15698;DHT22;7949;48.726;9.102;2023-01-30T03:55:14;-2.60;99.90
15698;DHT22;7949;48.726;9.102;2023-01-30T03:57:41;-2.60;99.90
15698;DHT22;7949;48.726;9.102;2023-01-30T04:00:09;-2.50;99.90
15698;DHT22;7949;48.726;9.102;2023-01-30T04:02:36;-2.40;99.90
15698;DHT22;7949;48.726;9.102;2023-01-30T04:05:03;-2.40;99.90
15698;DHT22;7949;48.726;9.102;2023-01-30T04:07:30;-2.30;99.90
15698;DHT22;7949;48.726;9.102;2023-01-30T04:09:58;-2.20;99.90
15698;DHT22;7949;48.726;9.102;2023-01-30T04:12:25;-2.00;99.90
15698;DHT22;7949;48.726;9.102;2023-01-30T04:14:52;-2.00;99.90
15698;DHT22;7949;48.726;9.102;2023-01-30T04:17:19;-1.90;99.90
15698;DHT22;7949;48.726;9.102;2023-01-30T04:19:46;-1.90;99.90
15698;DHT22;7949;48.726;9.102;2023-01-30T04:22:12;-1.90;99.90
15698;DHT22;7949;48.726;9.102;2023-01-30T04:24:39;-1.80;99.90
15698;DHT22;7949;48.726;9.102;2023-01-30T04:27:07;-1.70;99.90
15698;DHT22;7949;48.726;9.102;2023-01-30T04:29:35;-1.80;99.90
15698;DHT22;7949;48.726;9.102;2023-01-30T04:32:02;-1.70;99.90
15698;DHT22;7949;48.726;9.102;2023-01-30T04:34:29;-1.80;99.90
15698;DHT22;7949;48.726;9.102;2023-01-30T04:36:55;-1.70;99.90
15698;DHT22;7949;48.726;9.102;2023-01-30T04:39:22;-1.70;99.90
15698;DHT22;7949;48.726;9.102;2023-01-30T04:41:49;-1.70;99.90
15698;DHT22;7949;48.726;9.102;2023-01-30T04:44:18;-1.70;99.90
15698;DHT22;7949;48.726;9.102;2023-01-30T04:46:45;-1.60;99.90
15698;DHT22;7949;48.726;9.102;2023-01-30T04:49:12;-1.20;99.90
15698;DHT22;7949;48.726;9.102;2023-01-30T04:51:39;-1.60;99.90
15698;DHT22;7949;48.726;9.102;2023-01-30T04:54:06;-1.60;99.90
15698;DHT22;7949;48.726;9.102;2023-01-30T04:56:33;-1.50;99.90
15698;DHT22;7949;48.726;9.102;2023-01-30T04:59:00;-1.50;99.90
15698;DHT22;7949;48.726;9.102;2023-01-30T05:01:32;-1.50;99.90
15698;DHT22;7949;48.726;9.102;2023-01-30T05:04:00;-1.50;99.90
15698;DHT22;7949;48.726;9.102;2023-01-30T05:06:27;-1.50;99.90
15698;DHT22;7949;48.726;9.102;2023-01-30T05:08:55;-1.40;99.90
15698;DHT22;7949;48.726;9.102;2023-01-30T05:11:23;-1.40;99.90
15698;DHT22;7949;48.726;9.102;2023-01-30T05:13:50;-1.40;99.90
15698;DHT22;7949;48.726;9.102;2023-01-30T05:16:18;-1.40;99.90
15698;DHT22;7949;48.726;9.102;2023-01-30T05:18:47;-1.30;99.90
15698;DHT22;7949;48.726;9.102;2023-01-30T05:21:16;-1.30;99.90
15698;DHT22;7949;48.726;9.102;2023-01-30T05:23:43;-1.30;99.90
15698;DHT22;7949;48.726;9.102;2023-01-30T05:26:11;-0.90;99.90
15698;DHT22;7949;48.726;9.102;2023-01-30T05:28:38;-1.30;99.90
15698;DHT22;7949;48.726;9.102;2023-01-30T05:31:07;-1.30;99.90
15698;DHT22;7949;48.726;9.102;2023-01-30T05:33:34;-1.30;99.90
15698;DHT22;7949;48.726;9.102;2023-01-30T05:36:02;-1.30;99.90
15698;DHT22;7949;48.726;9.102;2023-01-30T05:38:29;-1.30;99.90
15698;DHT22;7949;48.726;9.102;2023-01-30T05:41:00;-1.30;99.90
15698;DHT22;7949;48.726;9.102;2023-01-30T05:43:27;-1.30;99.90
15698;DHT22;7949;48.726;9.102;2023-01-30T05:45:56;-1.20;99.90
15698;DHT22;7949;48.726;9.102;2023-01-30T05:48:24;-1.30;99.90
15698;DHT22;7949;48.726;9.102;2023-01-30T05:50:51;-1.20;99.90
15698;DHT22;7949;48.726;9.102;2023-01-30T05:53:21;-1.10;99.90
15698;DHT22;7949;48.726;9.102;2023-01-30T05:55:54;-1.10;99.90
15698;DHT22;7949;48.726;9.102;2023-01-30T05:58:21;-1.10;99.90
15698;DHT22;7949;48.726;9.102;2023-01-30T06:00:48;-1.10;99.90
15698;DHT22;7949;48.726;9.102;2023-01-30T06:03:14;-1.10;99.90
15698;DHT22;7949;48.726;9.102;2023-01-30T06:05:41;-1.10;99.90
15698;DHT22;7949;48.726;9.102;2023-01-30T06:08:08;-1.10;99.90
15698;DHT22;7949;48.726;9.102;2023-01-30T06:10:36;-1.10;99.90
15698;DHT22;7949;48.726;9.102;2023-01-30T06:13:03;-1.10;99.90
15698;DHT22;7949;48.726;9.102;2023-01-30T06:15:30;-1.10;99.90
15698;DHT22;7949;48.726;9.102;2023-01-30T06:17:57;-1.20;99.90
15698;DHT22;7949;48.726;9.102;2023-01-30T06:20:23;-1.20;99.90
15698;DHT22;7949;48.726;9.102;2023-01-30T06:22:50;-1.20;99.90
15698;DHT22;7949;48.726;9.102;2023-01-30T06:25:17;-1.20;99.90
15698;DHT22;7949;48.726;9.102;2023-01-30T06:27:46;-1.20;99.90
15698;DHT22;7949;48.726;9.102;2023-01-30T06:30:13;-1.30;99.90
15698;DHT22;7949;48.726;9.102;2023-01-30T06:32:40;-1.20;99.90
15698;DHT22;7949;48.726;9.102;2023-01-30T06:35:08;-1.10;99.90
15698;DHT22;7949;48.726;9.102;2023-01-30T06:37:34;-1.20;99.90
15698;DHT22;7949;48.726;9.102;2023-01-30T06:40:01;-1.10;99.90
15698;DHT22;7949;48.726;9.102;2023-01-30T06:42:28;-1.10;99.90
15698;DHT22;7949;48.726;9.102;2023-01-30T06:44:57;-1.00;99.90
15698;DHT22;7949;48.726;9.102;2023-01-30T06:47:24;-1.00;99.90
15698;DHT22;7949;48.726;9.102;2023-01-30T06:49:50;-1.00;99.90
15698;DHT22;7949;48.726;9.102;2023-01-30T06:52:17;-1.00;99.90
15698;DHT22;7949;48.726;9.102;2023-01-30T06:54:44;-1.00;99.90
15698;DHT22;7949;48.726;9.102;2023-01-30T06:57:11;-1.00;99.90
15698;DHT22;7949;48.726;9.102;2023-01-30T06:59:38;-1.00;99.90
15698;DHT22;7949;48.726;9.102;2023-01-30T07:02:07;-1.00;99.90
15698;DHT22;7949;48.726;9.102;2023-01-30T07:04:34;-1.10;99.90
15698;DHT22;7949;48.726;9.102;2023-01-30T07:07:01;-0.90;99.90
15698;DHT22;7949;48.726;9.102;2023-01-30T07:09:28;-0.90;99.90
15698;DHT22;7949;48.726;9.102;2023-01-30T07:11:55;-0.80;99.90
15698;DHT22;7949;48.726;9.102;2023-01-30T07:14:22;-0.70;99.90
15698;DHT22;7949;48.726;9.102;2023-01-30T07:16:48;-0.70;99.90
15698;DHT22;7949;48.726;9.102;2023-01-30T07:19:17;-0.80;99.90
15698;DHT22;7949;48.726;9.102;2023-01-30T07:21:44;-0.80;99.90
15698;DHT22;7949;48.726;9.102;2023-01-30T07:24:10;-0.70;99.90
15698;DHT22;7949;48.726;9.102;2023-01-30T07:26:37;-0.70;99.90
15698;DHT22;7949;48.726;9.102;2023-01-30T07:29:04;-0.60;99.90
15698;DHT22;7949;48.726;9.102;2023-01-30T07:31:31;-0.40;99.90
15698;DHT22;7949;48.726;9.102;2023-01-30T07:33:58;-0.40;99.90
15698;DHT22;7949;48.726;9.102;2023-01-30T07:36:26;-0.50;99.90
15698;DHT22;7949;48.726;9.102;2023-01-30T07:38:53;-0.40;99.90
15698;DHT22;7949;48.726;9.102;2023-01-30T07:41:20;-0.40;99.90
15698;DHT22;7949;48.726;9.102;2023-01-30T07:43:48;-0.40;99.90
15698;DHT22;7949;48.726;9.102;2023-01-30T07:46:15;-0.40;99.90
15698;DHT22;7949;48.726;9.102;2023-01-30T07:48:43;-0.40;99.90
15698;DHT22;7949;48.726;9.102;2023-01-30T07:51:10;-0.40;99.90
15698;DHT22;7949;48.726;9.102;2023-01-30T07:53:38;-0.40;99.90
15698;DHT22;7949;48.726;9.102;2023-01-30T07:56:06;-0.40;99.90
15698;DHT22;7949;48.726;9.102;2023-01-30T07:58:33;-0.40;99.90
15698;DHT22;7949;48.726;9.102;2023-01-30T08:01:00;-0.10;99.90
15698;DHT22;7949;48.726;9.102;2023-01-30T08:03:27;-0.30;99.90
15698;DHT22;7949;48.726;9.102;2023-01-30T08:05:54;-0.20;99.90
15698;DHT22;7949;48.726;9.102;2023-01-30T08:08:21;-0.10;99.90
15698;DHT22;7949;48.726;9.102;2023-01-30T08:10:50;-0.10;99.90
15698;DHT22;7949;48.726;9.102;2023-01-30T08:13:16;0.10;99.90
15698;DHT22;7949;48.726;9.102;2023-01-30T08:15:43;0.00;99.90
15698;DHT22;7949;48.726;9.102;2023-01-30T08:18:10;0.00;99.90
15698;DHT22;7949;48.726;9.102;2023-01-30T08:20:37;0.00;99.90
15698;DHT22;7949;48.726;9.102;2023-01-30T08:23:04;-0.10;99.90
15698;DHT22;7949;48.726;9.102;2023-01-30T08:25:31;-0.20;99.90
15698;DHT22;7949;48.726;9.102;2023-01-30T08:28:01;-0.10;99.90
15698;DHT22;7949;48.726;9.102;2023-01-30T08:30:29;0.00;99.90
15698;DHT22;7949;48.726;9.102;2023-01-30T08:32:56;-0.10;99.90
15698;DHT22;7949;48.726;9.102;2023-01-30T08:35:23;0.60;99.90
15698;DHT22;7949;48.726;9.102;2023-01-30T08:37:50;-0.10;99.90
15698;DHT22;7949;48.726;9.102;2023-01-30T08:40:17;-0.10;99.90
15698;DHT22;7949;48.726;9.102;2023-01-30T08:42:44;0.00;99.90
15698;DHT22;7949;48.726;9.102;2023-01-30T08:45:12;0.10;99.90
15698;DHT22;7949;48.726;9.102;2023-01-30T08:47:39;0.00;99.90
15698;DHT22;7949;48.726;9.102;2023-01-30T08:50:06;0.20;99.90
15698;DHT22;7949;48.726;9.102;2023-01-30T08:52:34;0.40;99.90
15698;DHT22;7949;48.726;9.102;2023-01-30T08:55:00;0.50;99.90
15698;DHT22;7949;48.726;9.102;2023-01-30T08:57:27;0.60;99.90
15698;DHT22;7949;48.726;9.102;2023-01-30T08:59:54;0.60;99.90
15698;DHT22;7949;48.726;9.102;2023-01-30T09:02:23;0.60;99.90
15698;DHT22;7949;48.726;9.102;2023-01-30T09:04:49;0.60;99.90
15698;DHT22;7949;48.726;9.102;2023-01-30T09:07:16;0.60;99.90
15698;DHT22;7949;48.726;9.102;2023-01-30T09:09:43;0.60;99.90
15698;DHT22;7949;48.726;9.102;2023-01-30T09:12:10;0.80;99.90
15698;DHT22;7949;48.726;9.102;2023-01-30T09:14:37;0.50;99.90
15698;DHT22;7949;48.726;9.102;2023-01-30T09:17:04;0.60;99.90
15698;DHT22;7949;48.726;9.102;2023-01-30T09:19:32;0.70;99.90
15698;DHT22;7949;48.726;9.102;2023-01-30T09:22:00;0.90;99.90
15698;DHT22;7949;48.726;9.102;2023-01-30T09:24:27;1.00;99.90
15698;DHT22;7949;48.726;9.102;2023-01-30T09:26:55;1.30;99.90
15698;DHT22;7949;48.726;9.102;2023-01-30T09:29:23;1.60;99.90
15698;DHT22;7949;48.726;9.102;2023-01-30T09:31:51;1.70;99.90
15698;DHT22;7949;48.726;9.102;2023-01-30T09:34:18;1.60;99.90
15698;DHT22;7949;48.726;9.102;2023-01-30T09:36:46;1.50;99.90
15698;DHT22;7949;48.726;9.102;2023-01-30T09:39:13;1.50;99.90
15698;DHT22;7949;48.726;9.102;2023-01-30T09:41:52;1.40;99.90
15698;DHT22;7949;48.726;9.102;2023-01-30T09:44:47;1.50;99.90
15698;DHT22;7949;48.726;9.102;2023-01-30T09:47:25;1.50;99.90
15698;DHT22;7949;48.726;9.102;2023-01-30T09:50:03;1.60;99.90
15698;DHT22;7949;48.726;9.102;2023-01-30T09:52:42;1.60;99.90
15698;DHT22;7949;48.726;9.102;2023-01-30T09:55:16;1.60;99.90
15698;DHT22;7949;48.726;9.102;2023-01-30T09:57:46;1.70;99.90
15698;DHT22;7949;48.726;9.102;2023-01-30T10:00:18;1.70;99.90
15698;DHT22;7949;48.726;9.102;2023-01-30T10:02:52;1.90;99.90
15698;DHT22;7949;48.726;9.102;2023-01-30T10:05:29;1.90;99.90
15698;DHT22;7949;48.726;9.102;2023-01-30T10:08:10;2.10;99.90
15698;DHT22;7949;48.726;9.102;2023-01-30T10:10:46;2.30;99.90
15698;DHT22;7949;48.726;9.102;2023-01-30T10:13:26;2.40;99.90
15698;DHT22;7949;48.726;9.102;2023-01-30T10:15:57;2.50;99.90
15698;DHT22;7949;48.726;9.102;2023-01-30T10:18:47;2.50;99.90
15698;DHT22;7949;48.726;9.102;2023-01-30T10:21:21;2.50;99.90
15698;DHT22;7949;48.726;9.102;2023-01-30T10:24:13;2.60;99.90
15698;DHT22;7949;48.726;9.102;2023-01-30T10:26:44;2.70;99.90
15698;DHT22;7949;48.726;9.102;2023-01-30T10:29:16;4.10;99.90
15698;DHT22;7949;48.726;9.102;2023-01-30T10:31:45;2.80;99.90
15698;DHT22;7949;48.726;9.102;2023-01-30T10:34:17;3.20;99.90
15698;DHT22;7949;48.726;9.102;2023-01-30T10:36:51;2.80;99.90
15698;DHT22;7949;48.726;9.102;2023-01-30T10:39:26;2.60;99.90
15698;DHT22;7949;48.726;9.102;2023-01-30T10:41:57;2.70;99.90
15698;DHT22;7949;48.726;9.102;2023-01-30T10:44:28;2.70;99.90
15698;DHT22;7949;48.726;9.102;2023-01-30T10:47:11;2.80;99.90
15698;DHT22;7949;48.726;9.102;2023-01-30T10:49:43;2.80;99.90
15698;DHT22;7949;48.726;9.102;2023-01-30T10:52:23;2.90;99.90
15698;DHT22;7949;48.726;9.102;2023-01-30T10:55:00;2.90;99.90
15698;DHT22;7949;48.726;9.102;2023-01-30T10:57:40;2.90;99.90
15698;DHT22;7949;48.726;9.102;2023-01-30T11:00:16;2.90;99.90
15698;DHT22;7949;48.726;9.102;2023-01-30T11:02:57;2.80;99.90
15698;DHT22;7949;48.726;9.102;2023-01-30T11:05:27;2.70;99.90
15698;DHT22;7949;48.726;9.102;2023-01-30T11:07:56;3.90;99.90
15698;DHT22;7949;48.726;9.102;2023-01-30T11:10:26;3.30;99.90
15698;DHT22;7949;48.726;9.102;2023-01-30T11:12:54;1.40;99.90
15698;DHT22;7949;48.726;9.102;2023-01-30T11:15:23;2.80;99.90
15698;DHT22;7949;48.726;9.102;2023-01-30T11:18:03;2.80;99.90
15698;DHT22;7949;48.726;9.102;2023-01-30T11:20:30;2.70;99.90
15698;DHT22;7949;48.726;9.102;2023-01-30T11:23:06;2.60;99.90
15698;DHT22;7949;48.726;9.102;2023-01-30T11:25:47;2.50;99.90
15698;DHT22;7949;48.726;9.102;2023-01-30T11:28:15;2.50;99.90
15698;DHT22;7949;48.726;9.102;2023-01-30T11:30:49;2.60;99.90
15698;DHT22;7949;48.726;9.102;2023-01-30T11:33:18;2.60;99.90
15698;DHT22;7949;48.726;9.102;2023-01-30T11:35:52;2.50;99.90
15698;DHT22;7949;48.726;9.102;2023-01-30T11:38:22;2.40;99.90
15698;DHT22;7949;48.726;9.102;2023-01-30T11:41:01;2.40;99.90
15698;DHT22;7949;48.726;9.102;2023-01-30T11:43:29;2.80;99.90
15698;DHT22;7949;48.726;9.102;2023-01-30T11:45:57;2.80;99.90
15698;DHT22;7949;48.726;9.102;2023-01-30T11:48:26;2.30;99.90
15698;DHT22;7949;48.726;9.102;2023-01-30T11:50:56;2.20;99.90
15698;DHT22;7949;48.726;9.102;2023-01-30T11:53:30;2.10;99.90
15698;DHT22;7949;48.726;9.102;2023-01-30T11:56:05;1.90;99.90
15698;DHT22;7949;48.726;9.102;2023-01-30T11:58:37;1.80;99.90
15698;DHT22;7949;48.726;9.102;2023-01-30T12:01:08;1.80;99.90
15698;DHT22;7949;48.726;9.102;2023-01-30T12:03:43;1.70;99.90
15698;DHT22;7949;48.726;9.102;2023-01-30T12:06:11;1.70;99.90
15698;DHT22;7949;48.726;9.102;2023-01-30T12:08:51;2.30;99.90
15698;DHT22;7949;48.726;9.102;2023-01-30T12:11:41;1.70;99.90
15698;DHT22;7949;48.726;9.102;2023-01-30T12:14:18;1.60;99.90
15698;DHT22;7949;48.726;9.102;2023-01-30T12:17:02;1.60;99.90
15698;DHT22;7949;48.726;9.102;2023-01-30T12:19:38;1.60;99.90
15698;DHT22;7949;48.726;9.102;2023-01-30T12:22:18;2.90;99.90
15698;DHT22;7949;48.726;9.102;2023-01-30T12:24:54;2.40;99.90
15698;DHT22;7949;48.726;9.102;2023-01-30T12:27:29;1.60;99.90
15698;DHT22;7949;48.726;9.102;2023-01-30T12:30:03;1.40;99.90
15698;DHT22;7949;48.726;9.102;2023-01-30T12:32:33;1.40;99.90
15698;DHT22;7949;48.726;9.102;2023-01-30T12:35:01;1.30;99.90
15698;DHT22;7949;48.726;9.102;2023-01-30T12:37:38;2.00;99.90
15698;DHT22;7949;48.726;9.102;2023-01-30T12:40:19;1.40;99.90
15698;DHT22;7949;48.726;9.102;2023-01-30T12:43:09;1.60;99.90
15698;DHT22;7949;48.726;9.102;2023-01-30T12:45:44;1.50;99.90
15698;DHT22;7949;48.726;9.102;2023-01-30T12:48:31;2.00;99.90
15698;DHT22;7949;48.726;9.102;2023-01-30T12:51:09;1.40;99.90
15698;DHT22;7949;48.726;9.102;2023-01-30T12:53:46;1.40;99.90
15698;DHT22;7949;48.726;9.102;2023-01-30T12:56:41;1.30;99.90
15698;DHT22;7949;48.726;9.102;2023-01-30T12:59:15;1.50;99.90
15698;DHT22;7949;48.726;9.102;2023-01-30T13:01:57;2.10;99.90
15698;DHT22;7949;48.726;9.102;2023-01-30T13:04:36;1.80;99.90
15698;DHT22;7949;48.726;9.102;2023-01-30T13:07:11;1.20;99.90
15698;DHT22;7949;48.726;9.102;2023-01-30T13:09:52;1.30;99.90
15698;DHT22;7949;48.726;9.102;2023-01-30T13:12:30;1.20;99.90
15698;DHT22;7949;48.726;9.102;2023-01-30T13:15:05;1.20;99.90
15698;DHT22;7949;48.726;9.102;2023-01-30T13:17:44;1.20;99.90
15698;DHT22;7949;48.726;9.102;2023-01-30T13:20:27;1.40;99.90
15698;DHT22;7949;48.726;9.102;2023-01-30T13:23:03;1.20;99.90
15698;DHT22;7949;48.726;9.102;2023-01-30T13:25:37;1.20;99.90
15698;DHT22;7949;48.726;9.102;2023-01-30T13:28:13;1.20;99.90
15698;DHT22;7949;48.726;9.102;2023-01-30T13:30:44;1.20;99.90
15698;DHT22;7949;48.726;9.102;2023-01-30T13:33:18;1.20;99.90
15698;DHT22;7949;48.726;9.102;2023-01-30T13:35:50;1.30;99.90
15698;DHT22;7949;48.726;9.102;2023-01-30T13:38:20;1.30;99.90
15698;DHT22;7949;48.726;9.102;2023-01-30T13:40:49;1.30;99.90
15698;DHT22;7949;48.726;9.102;2023-01-30T13:43:21;1.30;99.90
15698;DHT22;7949;48.726;9.102;2023-01-30T13:45:55;1.80;99.90
15698;DHT22;7949;48.726;9.102;2023-01-30T13:48:37;1.40;99.90
15698;DHT22;7949;48.726;9.102;2023-01-30T13:51:25;1.50;99.90
15698;DHT22;7949;48.726;9.102;2023-01-30T13:53:58;1.50;99.90
15698;DHT22;7949;48.726;9.102;2023-01-30T13:56:33;1.50;99.90
15698;DHT22;7949;48.726;9.102;2023-01-30T13:59:09;2.40;99.90
15698;DHT22;7949;48.726;9.102;2023-01-30T14:02:18;1.60;99.90
15698;DHT22;7949;48.726;9.102;2023-01-30T14:04:48;1.60;99.90
15698;DHT22;7949;48.726;9.102;2023-01-30T14:07:19;1.60;99.90
15698;DHT22;7949;48.726;9.102;2023-01-30T14:09:50;1.60;99.90
15698;DHT22;7949;48.726;9.102;2023-01-30T14:12:21;1.60;99.90
15698;DHT22;7949;48.726;9.102;2023-01-30T14:14:59;1.60;99.90
15698;DHT22;7949;48.726;9.102;2023-01-30T14:17:29;1.60;99.90
15698;DHT22;7949;48.726;9.102;2023-01-30T14:20:00;1.70;99.90
15698;DHT22;7949;48.726;9.102;2023-01-30T14:22:35;1.70;99.90
15698;DHT22;7949;48.726;9.102;2023-01-30T14:31:44;1.70;99.90
15698;DHT22;7949;48.726;9.102;2023-01-30T14:37:45;1.80;99.90
15698;DHT22;7949;48.726;9.102;2023-01-30T14:40:32;1.80;99.90
15698;DHT22;7949;48.726;9.102;2023-01-30T14:46:11;1.80;99.90
15698;DHT22;7949;48.726;9.102;2023-01-30T14:49:02;1.60;99.90
15698;DHT22;7949;48.726;9.102;2023-01-30T14:51:34;1.90;99.90
15698;DHT22;7949;48.726;9.102;2023-01-30T14:54:05;1.90;99.90
15698;DHT22;7949;48.726;9.102;2023-01-30T14:56:38;1.90;99.90
15698;DHT22;7949;48.726;9.102;2023-01-30T14:59:10;2.00;99.90
15698;DHT22;7949;48.726;9.102;2023-01-30T15:01:59;2.00;99.90
15698;DHT22;7949;48.726;9.102;2023-01-30T15:04:30;2.10;99.90
15698;DHT22;7949;48.726;9.102;2023-01-30T15:06:59;2.10;99.90
15698;DHT22;7949;48.726;9.102;2023-01-30T15:09:29;2.10;99.90
15698;DHT22;7949;48.726;9.102;2023-01-30T15:12:12;2.10;99.90
15698;DHT22;7949;48.726;9.102;2023-01-30T15:14:48;2.10;99.90
15698;DHT22;7949;48.726;9.102;2023-01-30T15:17:24;2.50;99.90
15698;DHT22;7949;48.726;9.102;2023-01-30T15:20:11;2.20;99.90
15698;DHT22;7949;48.726;9.102;2023-01-30T15:22:52;2.10;99.90
15698;DHT22;7949;48.726;9.102;2023-01-30T15:25:31;2.10;99.90
15698;DHT22;7949;48.726;9.102;2023-01-30T15:28:13;2.20;99.90
15698;DHT22;7949;48.726;9.102;2023-01-30T15:31:00;2.20;99.90
15698;DHT22;7949;48.726;9.102;2023-01-30T15:33:30;2.20;99.90
15698;DHT22;7949;48.726;9.102;2023-01-30T15:35:59;2.20;99.90
15698;DHT22;7949;48.726;9.102;2023-01-30T15:38:28;2.30;99.90
15698;DHT22;7949;48.726;9.102;2023-01-30T15:40:58;2.30;99.90
15698;DHT22;7949;48.726;9.102;2023-01-30T15:43:52;2.30;99.90
15698;DHT22;7949;48.726;9.102;2023-01-30T15:46:29;2.30;99.90
15698;DHT22;7949;48.726;9.102;2023-01-30T15:49:16;2.30;99.90
15698;DHT22;7949;48.726;9.102;2023-01-30T15:51:47;2.30;99.90
15698;DHT22;7949;48.726;9.102;2023-01-30T15:54:16;2.30;99.90
15698;DHT22;7949;48.726;9.102;2023-01-30T15:56:45;2.30;99.90
15698;DHT22;7949;48.726;9.102;2023-01-30T15:59:26;2.20;99.90
15698;DHT22;7949;48.726;9.102;2023-01-30T16:01:59;2.30;99.90
15698;DHT22;7949;48.726;9.102;2023-01-30T16:04:27;2.30;99.90
15698;DHT22;7949;48.726;9.102;2023-01-30T16:06:56;2.30;99.90
15698;DHT22;7949;48.726;9.102;2023-01-30T16:09:24;2.30;99.90
15698;DHT22;7949;48.726;9.102;2023-01-30T16:11:51;2.30;99.90
15698;DHT22;7949;48.726;9.102;2023-01-30T16:14:20;2.30;99.90
15698;DHT22;7949;48.726;9.102;2023-01-30T16:16:50;2.20;99.90
15698;DHT22;7949;48.726;9.102;2023-01-30T16:19:22;2.20;99.90
15698;DHT22;7949;48.726;9.102;2023-01-30T16:21:55;2.20;99.90
15698;DHT22;7949;48.726;9.102;2023-01-30T16:24:26;2.20;99.90
15698;DHT22;7949;48.726;9.102;2023-01-30T16:26:55;2.20;99.90
15698;DHT22;7949;48.726;9.102;2023-01-30T16:29:25;2.20;99.90
15698;DHT22;7949;48.726;9.102;2023-01-30T16:31:52;2.10;99.90